sensor_id;sensor_type;location;lat;lon;timestamp;P1;durP1;ratioP1;P2;durP2;ratioP2
15693;SDS011;7947;48.834;9.132;2022-12-11T00:02:48;16.90;;;7.70;;
15693;SDS011;7947;48.834;9.132;2022-12-11T00:05:51;12.07;;;6.40;;
15693;SDS011;7947;48.834;9.132;2022-12-11T00:08:54;11.87;;;6.50;;
15693;SDS011;7947;48.834;9.132;2022-12-11T00:11:56;12.87;;;7.07;;
15693;SDS011;7947;48.834;9.132;2022-12-11T00:14:59;12.43;;;6.80;;
15693;SDS011;7947;48.834;9.132;2022-12-11T00:18:03;13.23;;;7.07;;
15693;SDS011;7947;48.834;9.132;2022-12-11T00:21:08;13.57;;;7.50;;
15693;SDS011;7947;48.834;9.132;2022-12-11T00:24:14;12.27;;;7.80;;
15693;SDS011;7947;48.834;9.132;2022-12-11T00:27:17;16.90;;;8.00;;
15693;SDS011;7947;48.834;9.132;2022-12-11T00:30:19;14.70;;;7.87;;
15693;SDS011;7947;48.834;9.132;2022-12-11T00:33:25;15.53;;;8.67;;
15693;SDS011;7947;48.834;9.132;2022-12-11T00:36:28;14.67;;;8.03;;
15693;SDS011;7947;48.834;9.132;2022-12-11T00:39:30;15.40;;;7.90;;
15693;SDS011;7947;48.834;9.132;2022-12-11T00:42:33;17.57;;;8.90;;
15693;SDS011;7947;48.834;9.132;2022-12-11T00:45:36;16.37;;;9.07;;
15693;SDS011;7947;48.834;9.132;2022-12-11T00:48:40;14.10;;;7.87;;
15693;SDS011;7947;48.834;9.132;2022-12-11T00:51:43;17.13;;;8.73;;
15693;SDS011;7947;48.834;9.132;2022-12-11T00:54:46;12.13;;;7.93;;
15693;SDS011;7947;48.834;9.132;2022-12-11T00:57:49;15.53;;;8.00;;
15693;SDS011;7947;48.834;9.132;2022-12-11T01:00:52;15.37;;;8.57;;
15693;SDS011;7947;48.834;9.132;2022-12-11T01:03:56;17.47;;;8.83;;
15693;SDS011;7947;48.834;9.132;2022-12-11T01:06:59;12.60;;;7.20;;
15693;SDS011;7947;48.834;9.132;2022-12-11T01:10:02;17.10;;;8.03;;
15693;SDS011;7947;48.834;9.132;2022-12-11T01:13:24;17.67;;;9.50;;
15693;SDS011;7947;48.834;9.132;2022-12-11T01:16:26;16.47;;;8.93;;
15693;SDS011;7947;48.834;9.132;2022-12-11T01:19:30;15.60;;;8.20;;
15693;SDS011;7947;48.834;9.132;2022-12-11T01:22:33;13.93;;;8.20;;
15693;SDS011;7947;48.834;9.132;2022-12-11T01:25:36;15.80;;;8.80;;
15693;SDS011;7947;48.834;9.132;2022-12-11T01:28:39;16.13;;;8.57;;
15693;SDS011;7947;48.834;9.132;2022-12-11T01:31:43;14.80;;;8.57;;
15693;SDS011;7947;48.834;9.132;2022-12-11T01:34:47;15.60;;;8.23;;
15693;SDS011;7947;48.834;9.132;2022-12-11T01:37:49;15.17;;;9.13;;
15693;SDS011;7947;48.834;9.132;2022-12-11T01:40:52;12.63;;;7.87;;
15693;SDS011;7947;48.834;9.132;2022-12-11T01:43:55;15.37;;;8.80;;
15693;SDS011;7947;48.834;9.132;2022-12-11T01:47:02;15.50;;;8.70;;
15693;SDS011;7947;48.834;9.132;2022-12-11T01:50:07;15.90;;;8.77;;
15693;SDS011;7947;48.834;9.132;2022-12-11T01:53:11;13.67;;;8.30;;
15693;SDS011;7947;48.834;9.132;2022-12-11T01:56:18;14.27;;;7.73;;
15693;SDS011;7947;48.834;9.132;2022-12-11T01:59:21;16.77;;;8.43;;
15693;SDS011;7947;48.834;9.132;2022-12-11T02:02:28;14.37;;;8.07;;
15693;SDS011;7947;48.834;9.132;2022-12-11T02:05:33;14.10;;;7.93;;
15693;SDS011;7947;48.834;9.132;2022-12-11T02:08:36;14.67;;;8.40;;
15693;SDS011;7947;48.834;9.132;2022-12-11T02:11:42;14.50;;;8.23;;
15693;SDS011;7947;48.834;9.132;2022-12-11T02:14:55;15.30;;;9.13;;
15693;SDS011;7947;48.834;9.132;2022-12-11T02:18:11;16.03;;;8.70;;
15693;SDS011;7947;48.834;9.132;2022-12-11T02:21:22;15.03;;;8.13;;
15693;SDS011;7947;48.834;9.132;2022-12-11T02:24:31;15.20;;;8.67;;
15693;SDS011;7947;48.834;9.132;2022-12-11T02:27:49;14.13;;;8.13;;
15693;SDS011;7947;48.834;9.132;2022-12-11T02:30:59;15.93;;;8.83;;
15693;SDS011;7947;48.834;9.132;2022-12-11T02:34:07;15.67;;;8.27;;
15693;SDS011;7947;48.834;9.132;2022-12-11T02:37:15;15.80;;;8.37;;
15693;SDS011;7947;48.834;9.132;2022-12-11T02:40:23;14.27;;;8.37;;
15693;SDS011;7947;48.834;9.132;2022-12-11T02:43:29;13.77;;;8.70;;
15693;SDS011;7947;48.834;9.132;2022-12-11T02:46:35;15.03;;;8.33;;
15693;SDS011;7947;48.834;9.132;2022-12-11T02:49:39;15.83;;;8.80;;
15693;SDS011;7947;48.834;9.132;2022-12-11T02:52:45;16.07;;;9.07;;
15693;SDS011;7947;48.834;9.132;2022-12-11T02:55:53;14.77;;;8.27;;
15693;SDS011;7947;48.834;9.132;2022-12-11T02:59:02;12.97;;;8.27;;
15693;SDS011;7947;48.834;9.132;2022-12-11T03:02:12;17.00;;;9.97;;
15693;SDS011;7947;48.834;9.132;2022-12-11T03:05:16;16.60;;;8.13;;
15693;SDS011;7947;48.834;9.132;2022-12-11T03:08:19;14.10;;;8.73;;
15693;SDS011;7947;48.834;9.132;2022-12-11T03:11:22;14.60;;;7.83;;
15693;SDS011;7947;48.834;9.132;2022-12-11T03:14:24;14.37;;;8.97;;
15693;SDS011;7947;48.834;9.132;2022-12-11T03:17:29;13.23;;;7.97;;
15693;SDS011;7947;48.834;9.132;2022-12-11T03:20:38;17.23;;;8.43;;
15693;SDS011;7947;48.834;9.132;2022-12-11T03:23:46;15.40;;;8.33;;
15693;SDS011;7947;48.834;9.132;2022-12-11T03:26:54;12.23;;;7.17;;
15693;SDS011;7947;48.834;9.132;2022-12-11T03:30:03;13.33;;;7.50;;
15693;SDS011;7947;48.834;9.132;2022-12-11T03:33:09;15.90;;;8.10;;
15693;SDS011;7947;48.834;9.132;2022-12-11T03:36:16;13.53;;;7.53;;
15693;SDS011;7947;48.834;9.132;2022-12-11T03:39:24;14.10;;;8.37;;
15693;SDS011;7947;48.834;9.132;2022-12-11T03:42:31;11.00;;;7.07;;
15693;SDS011;7947;48.834;9.132;2022-12-11T03:45:35;12.73;;;7.57;;
15693;SDS011;7947;48.834;9.132;2022-12-11T03:48:42;15.73;;;8.13;;
15693;SDS011;7947;48.834;9.132;2022-12-11T03:51:47;11.73;;;7.77;;
15693;SDS011;7947;48.834;9.132;2022-12-11T03:54:53;15.93;;;8.27;;
15693;SDS011;7947;48.834;9.132;2022-12-11T03:57:59;15.23;;;8.33;;
15693;SDS011;7947;48.834;9.132;2022-12-11T04:01:02;15.47;;;8.53;;
15693;SDS011;7947;48.834;9.132;2022-12-11T04:04:07;17.17;;;9.53;;
15693;SDS011;7947;48.834;9.132;2022-12-11T04:07:09;11.83;;;6.90;;
15693;SDS011;7947;48.834;9.132;2022-12-11T04:10:12;14.10;;;8.20;;
15693;SDS011;7947;48.834;9.132;2022-12-11T04:13:15;14.60;;;8.77;;
15693;SDS011;7947;48.834;9.132;2022-12-11T04:16:17;11.73;;;7.43;;
15693;SDS011;7947;48.834;9.132;2022-12-11T04:19:21;14.27;;;8.37;;
15693;SDS011;7947;48.834;9.132;2022-12-11T04:22:42;14.83;;;7.63;;
15693;SDS011;7947;48.834;9.132;2022-12-11T04:26:03;13.60;;;7.93;;
15693;SDS011;7947;48.834;9.132;2022-12-11T04:29:07;15.40;;;8.13;;
15693;SDS011;7947;48.834;9.132;2022-12-11T04:32:09;17.63;;;8.87;;
15693;SDS011;7947;48.834;9.132;2022-12-11T04:35:14;14.33;;;7.73;;
15693;SDS011;7947;48.834;9.132;2022-12-11T04:38:17;12.60;;;7.53;;
15693;SDS011;7947;48.834;9.132;2022-12-11T04:41:19;12.53;;;6.90;;
15693;SDS011;7947;48.834;9.132;2022-12-11T04:44:22;12.53;;;7.63;;
15693;SDS011;7947;48.834;9.132;2022-12-11T04:47:25;12.60;;;6.43;;
15693;SDS011;7947;48.834;9.132;2022-12-11T04:50:29;13.77;;;7.17;;
15693;SDS011;7947;48.834;9.132;2022-12-11T04:53:32;10.67;;;6.27;;
15693;SDS011;7947;48.834;9.132;2022-12-11T04:56:35;15.50;;;7.67;;
15693;SDS011;7947;48.834;9.132;2022-12-11T04:59:37;12.10;;;7.00;;
15693;SDS011;7947;48.834;9.132;2022-12-11T05:02:40;10.67;;;6.43;;
15693;SDS011;7947;48.834;9.132;2022-12-11T05:05:47;10.97;;;5.80;;
15693;SDS011;7947;48.834;9.132;2022-12-11T05:08:50;10.00;;;6.13;;
15693;SDS011;7947;48.834;9.132;2022-12-11T05:11:53;12.00;;;7.23;;
15693;SDS011;7947;48.834;9.132;2022-12-11T05:14:56;10.23;;;6.17;;
15693;SDS011;7947;48.834;9.132;2022-12-11T05:17:59;12.30;;;6.13;;
15693;SDS011;7947;48.834;9.132;2022-12-11T05:21:04;10.53;;;5.77;;
15693;SDS011;7947;48.834;9.132;2022-12-11T05:24:08;10.87;;;5.87;;
15693;SDS011;7947;48.834;9.132;2022-12-11T05:27:11;11.20;;;6.07;;
15693;SDS011;7947;48.834;9.132;2022-12-11T05:30:14;11.27;;;6.23;;
15693;SDS011;7947;48.834;9.132;2022-12-11T05:33:17;14.17;;;7.97;;
15693;SDS011;7947;48.834;9.132;2022-12-11T05:36:21;12.73;;;7.10;;
15693;SDS011;7947;48.834;9.132;2022-12-11T05:39:26;11.83;;;5.63;;
15693;SDS011;7947;48.834;9.132;2022-12-11T05:42:28;12.73;;;6.80;;
15693;SDS011;7947;48.834;9.132;2022-12-11T05:45:31;9.00;;;5.83;;
15693;SDS011;7947;48.834;9.132;2022-12-11T05:48:34;11.53;;;5.93;;
15693;SDS011;7947;48.834;9.132;2022-12-11T05:51:39;10.43;;;5.77;;
15693;SDS011;7947;48.834;9.132;2022-12-11T05:54:43;10.77;;;5.10;;
15693;SDS011;7947;48.834;9.132;2022-12-11T05:57:46;8.93;;;5.20;;
15693;SDS011;7947;48.834;9.132;2022-12-11T06:00:48;8.63;;;5.57;;
15693;SDS011;7947;48.834;9.132;2022-12-11T06:03:51;11.17;;;5.70;;
15693;SDS011;7947;48.834;9.132;2022-12-11T06:06:56;9.13;;;5.60;;
15693;SDS011;7947;48.834;9.132;2022-12-11T06:09:59;10.93;;;6.23;;
15693;SDS011;7947;48.834;9.132;2022-12-11T06:13:02;11.63;;;6.70;;
15693;SDS011;7947;48.834;9.132;2022-12-11T06:16:05;9.13;;;5.07;;
15693;SDS011;7947;48.834;9.132;2022-12-11T06:19:11;10.40;;;5.50;;
15693;SDS011;7947;48.834;9.132;2022-12-11T06:22:16;11.87;;;6.20;;
15693;SDS011;7947;48.834;9.132;2022-12-11T06:25:18;9.83;;;6.20;;
15693;SDS011;7947;48.834;9.132;2022-12-11T06:28:21;8.43;;;5.60;;
15693;SDS011;7947;48.834;9.132;2022-12-11T06:31:24;8.17;;;5.50;;
15693;SDS011;7947;48.834;9.132;2022-12-11T06:34:26;10.73;;;6.60;;
15693;SDS011;7947;48.834;9.132;2022-12-11T06:37:30;11.43;;;5.83;;
15693;SDS011;7947;48.834;9.132;2022-12-11T06:40:33;11.33;;;6.00;;
15693;SDS011;7947;48.834;9.132;2022-12-11T06:43:37;11.40;;;5.80;;
15693;SDS011;7947;48.834;9.132;2022-12-11T06:46:41;12.00;;;6.93;;
15693;SDS011;7947;48.834;9.132;2022-12-11T06:49:44;10.13;;;5.57;;
15693;SDS011;7947;48.834;9.132;2022-12-11T06:52:48;11.60;;;6.73;;
15693;SDS011;7947;48.834;9.132;2022-12-11T06:55:51;11.07;;;6.47;;
15693;SDS011;7947;48.834;9.132;2022-12-11T06:58:58;11.47;;;6.50;;
15693;SDS011;7947;48.834;9.132;2022-12-11T07:02:08;9.23;;;5.30;;
15693;SDS011;7947;48.834;9.132;2022-12-11T07:05:15;12.03;;;6.43;;
15693;SDS011;7947;48.834;9.132;2022-12-11T07:08:22;10.17;;;5.43;;
15693;SDS011;7947;48.834;9.132;2022-12-11T07:11:27;10.23;;;5.93;;
15693;SDS011;7947;48.834;9.132;2022-12-11T07:14:32;14.37;;;6.70;;
15693;SDS011;7947;48.834;9.132;2022-12-11T07:17:35;11.93;;;6.50;;
15693;SDS011;7947;48.834;9.132;2022-12-11T07:20:40;12.03;;;6.27;;
15693;SDS011;7947;48.834;9.132;2022-12-11T07:23:46;10.13;;;6.23;;
15693;SDS011;7947;48.834;9.132;2022-12-11T07:26:51;9.00;;;5.40;;
15693;SDS011;7947;48.834;9.132;2022-12-11T07:29:54;15.30;;;6.77;;
15693;SDS011;7947;48.834;9.132;2022-12-11T07:32:57;10.33;;;6.00;;
15693;SDS011;7947;48.834;9.132;2022-12-11T07:36:01;13.13;;;6.87;;
15693;SDS011;7947;48.834;9.132;2022-12-11T07:39:06;8.57;;;5.23;;
15693;SDS011;7947;48.834;9.132;2022-12-11T07:42:10;9.77;;;6.57;;
15693;SDS011;7947;48.834;9.132;2022-12-11T07:45:15;15.20;;;7.20;;
15693;SDS011;7947;48.834;9.132;2022-12-11T07:48:20;10.87;;;6.07;;
15693;SDS011;7947;48.834;9.132;2022-12-11T07:51:25;13.47;;;7.70;;
15693;SDS011;7947;48.834;9.132;2022-12-11T07:54:32;13.07;;;7.13;;
15693;SDS011;7947;48.834;9.132;2022-12-11T07:57:36;13.07;;;6.97;;
15693;SDS011;7947;48.834;9.132;2022-12-11T08:00:42;12.00;;;7.27;;
15693;SDS011;7947;48.834;9.132;2022-12-11T08:03:49;12.00;;;7.03;;
15693;SDS011;7947;48.834;9.132;2022-12-11T08:06:54;11.70;;;7.30;;
15693;SDS011;7947;48.834;9.132;2022-12-11T08:10:00;15.63;;;7.87;;
15693;SDS011;7947;48.834;9.132;2022-12-11T08:13:05;14.37;;;7.77;;
15693;SDS011;7947;48.834;9.132;2022-12-11T08:16:10;15.50;;;8.67;;
15693;SDS011;7947;48.834;9.132;2022-12-11T08:19:16;11.47;;;7.40;;
15693;SDS011;7947;48.834;9.132;2022-12-11T08:22:21;12.83;;;7.83;;
15693;SDS011;7947;48.834;9.132;2022-12-11T08:25:28;12.87;;;7.47;;
15693;SDS011;7947;48.834;9.132;2022-12-11T08:28:34;11.87;;;7.20;;
15693;SDS011;7947;48.834;9.132;2022-12-11T08:31:39;14.53;;;6.90;;
15693;SDS011;7947;48.834;9.132;2022-12-11T08:34:44;11.77;;;7.60;;
15693;SDS011;7947;48.834;9.132;2022-12-11T08:37:50;11.77;;;7.03;;
15693;SDS011;7947;48.834;9.132;2022-12-11T08:40:56;14.30;;;7.50;;
15693;SDS011;7947;48.834;9.132;2022-12-11T08:44:01;12.43;;;7.73;;
15693;SDS011;7947;48.834;9.132;2022-12-11T08:47:06;14.43;;;7.87;;
15693;SDS011;7947;48.834;9.132;2022-12-11T08:50:12;15.97;;;8.57;;
15693;SDS011;7947;48.834;9.132;2022-12-11T08:53:17;14.07;;;8.03;;
15693;SDS011;7947;48.834;9.132;2022-12-11T08:56:23;14.70;;;8.47;;
15693;SDS011;7947;48.834;9.132;2022-12-11T08:59:29;15.00;;;8.33;;
15693;SDS011;7947;48.834;9.132;2022-12-11T09:02:34;14.77;;;8.67;;
15693;SDS011;7947;48.834;9.132;2022-12-11T09:05:40;13.17;;;7.90;;
15693;SDS011;7947;48.834;9.132;2022-12-11T09:08:46;15.77;;;8.27;;
15693;SDS011;7947;48.834;9.132;2022-12-11T09:11:55;13.60;;;7.43;;
15693;SDS011;7947;48.834;9.132;2022-12-11T09:15:01;16.90;;;9.30;;
15693;SDS011;7947;48.834;9.132;2022-12-11T09:18:05;16.40;;;8.27;;
15693;SDS011;7947;48.834;9.132;2022-12-11T09:21:10;17.10;;;8.93;;
15693;SDS011;7947;48.834;9.132;2022-12-11T09:24:19;15.57;;;7.90;;
15693;SDS011;7947;48.834;9.132;2022-12-11T09:27:25;16.47;;;9.10;;
15693;SDS011;7947;48.834;9.132;2022-12-11T09:30:30;14.87;;;8.33;;
15693;SDS011;7947;48.834;9.132;2022-12-11T09:33:35;17.50;;;8.50;;
15693;SDS011;7947;48.834;9.132;2022-12-11T09:36:40;14.93;;;8.40;;
15693;SDS011;7947;48.834;9.132;2022-12-11T09:39:45;18.57;;;9.30;;
15693;SDS011;7947;48.834;9.132;2022-12-11T09:42:52;14.87;;;9.23;;
15693;SDS011;7947;48.834;9.132;2022-12-11T09:46:00;16.00;;;8.87;;
15693;SDS011;7947;48.834;9.132;2022-12-11T09:49:11;18.30;;;9.90;;
15693;SDS011;7947;48.834;9.132;2022-12-11T09:52:27;13.87;;;8.33;;
15693;SDS011;7947;48.834;9.132;2022-12-11T09:55:38;12.70;;;7.97;;
15693;SDS011;7947;48.834;9.132;2022-12-11T09:58:56;15.00;;;7.90;;
15693;SDS011;7947;48.834;9.132;2022-12-11T10:02:13;13.10;;;7.67;;
15693;SDS011;7947;48.834;9.132;2022-12-11T10:05:28;13.43;;;7.80;;
15693;SDS011;7947;48.834;9.132;2022-12-11T10:08:42;16.10;;;8.30;;
15693;SDS011;7947;48.834;9.132;2022-12-11T10:11:57;16.83;;;8.40;;
15693;SDS011;7947;48.834;9.132;2022-12-11T10:15:15;11.97;;;7.50;;
15693;SDS011;7947;48.834;9.132;2022-12-11T10:18:37;15.27;;;7.60;;
15693;SDS011;7947;48.834;9.132;2022-12-11T10:21:43;12.77;;;7.63;;
15693;SDS011;7947;48.834;9.132;2022-12-11T10:24:52;15.50;;;7.87;;
15693;SDS011;7947;48.834;9.132;2022-12-11T10:28:12;13.67;;;8.30;;
15693;SDS011;7947;48.834;9.132;2022-12-11T10:31:23;11.47;;;7.20;;
15693;SDS011;7947;48.834;9.132;2022-12-11T10:34:35;13.80;;;6.70;;
15693;SDS011;7947;48.834;9.132;2022-12-11T10:37:44;13.27;;;7.00;;
15693;SDS011;7947;48.834;9.132;2022-12-11T10:40:50;12.87;;;6.87;;
15693;SDS011;7947;48.834;9.132;2022-12-11T10:43:59;13.47;;;7.23;;
15693;SDS011;7947;48.834;9.132;2022-12-11T10:47:08;12.87;;;8.00;;
15693;SDS011;7947;48.834;9.132;2022-12-11T10:50:21;13.17;;;7.13;;
15693;SDS011;7947;48.834;9.132;2022-12-11T10:53:27;11.93;;;6.63;;
15693;SDS011;7947;48.834;9.132;2022-12-11T10:56:33;10.67;;;6.77;;
15693;SDS011;7947;48.834;9.132;2022-12-11T10:59:42;10.83;;;5.80;;
15693;SDS011;7947;48.834;9.132;2022-12-11T11:02:52;10.27;;;6.33;;
15693;SDS011;7947;48.834;9.132;2022-12-11T11:06:01;10.73;;;5.83;;
15693;SDS011;7947;48.834;9.132;2022-12-11T11:09:32;11.33;;;6.27;;
15693;SDS011;7947;48.834;9.132;2022-12-11T11:12:40;13.27;;;6.97;;
15693;SDS011;7947;48.834;9.132;2022-12-11T11:15:45;11.33;;;6.17;;
15693;SDS011;7947;48.834;9.132;2022-12-11T11:18:53;9.83;;;6.20;;
15693;SDS011;7947;48.834;9.132;2022-12-11T11:21:59;9.03;;;5.70;;
15693;SDS011;7947;48.834;9.132;2022-12-11T11:25:14;11.43;;;6.33;;
15693;SDS011;7947;48.834;9.132;2022-12-11T11:28:21;10.47;;;6.27;;
15693;SDS011;7947;48.834;9.132;2022-12-11T11:31:31;10.53;;;5.80;;
15693;SDS011;7947;48.834;9.132;2022-12-11T11:34:39;13.63;;;7.20;;
15693;SDS011;7947;48.834;9.132;2022-12-11T11:37:52;15.30;;;7.87;;
15693;SDS011;7947;48.834;9.132;2022-12-11T11:41:03;13.53;;;7.97;;
15693;SDS011;7947;48.834;9.132;2022-12-11T11:44:17;11.73;;;7.90;;
15693;SDS011;7947;48.834;9.132;2022-12-11T11:47:29;16.07;;;7.90;;
15693;SDS011;7947;48.834;9.132;2022-12-11T11:50:43;13.33;;;7.20;;
15693;SDS011;7947;48.834;9.132;2022-12-11T11:53:52;12.90;;;6.90;;
15693;SDS011;7947;48.834;9.132;2022-12-11T11:57:01;14.97;;;7.33;;
15693;SDS011;7947;48.834;9.132;2022-12-11T12:00:16;10.97;;;6.27;;
15693;SDS011;7947;48.834;9.132;2022-12-11T12:03:23;11.67;;;6.80;;
15693;SDS011;7947;48.834;9.132;2022-12-11T12:10:03;12.37;;;6.90;;
15693;SDS011;7947;48.834;9.132;2022-12-11T12:13:20;12.63;;;7.27;;
15693;SDS011;7947;48.834;9.132;2022-12-11T12:16:50;13.03;;;6.67;;
15693;SDS011;7947;48.834;9.132;2022-12-11T12:20:08;12.47;;;6.83;;
15693;SDS011;7947;48.834;9.132;2022-12-11T12:23:28;10.17;;;6.37;;
15693;SDS011;7947;48.834;9.132;2022-12-11T12:26:43;12.47;;;7.33;;
15693;SDS011;7947;48.834;9.132;2022-12-11T12:29:52;11.87;;;7.30;;
15693;SDS011;7947;48.834;9.132;2022-12-11T12:33:14;10.97;;;6.60;;
15693;SDS011;7947;48.834;9.132;2022-12-11T12:36:32;12.00;;;6.43;;
15693;SDS011;7947;48.834;9.132;2022-12-11T12:39:48;13.40;;;7.10;;
15693;SDS011;7947;48.834;9.132;2022-12-11T12:43:03;13.90;;;7.87;;
15693;SDS011;7947;48.834;9.132;2022-12-11T12:46:32;16.50;;;8.20;;
15693;SDS011;7947;48.834;9.132;2022-12-11T12:49:49;15.27;;;7.87;;
15693;SDS011;7947;48.834;9.132;2022-12-11T12:52:56;17.93;;;9.13;;
15693;SDS011;7947;48.834;9.132;2022-12-11T12:56:02;11.90;;;6.77;;
15693;SDS011;7947;48.834;9.132;2022-12-11T12:59:17;13.23;;;7.47;;
15693;SDS011;7947;48.834;9.132;2022-12-11T13:02:24;13.03;;;8.13;;
15693;SDS011;7947;48.834;9.132;2022-12-11T13:05:31;14.53;;;8.23;;
15693;SDS011;7947;48.834;9.132;2022-12-11T13:08:38;18.20;;;8.47;;
15693;SDS011;7947;48.834;9.132;2022-12-11T13:11:47;16.73;;;8.60;;
15693;SDS011;7947;48.834;9.132;2022-12-11T13:14:55;16.77;;;8.63;;
15693;SDS011;7947;48.834;9.132;2022-12-11T13:18:00;18.23;;;8.37;;
15693;SDS011;7947;48.834;9.132;2022-12-11T13:21:23;19.27;;;9.50;;
15693;SDS011;7947;48.834;9.132;2022-12-11T13:24:31;15.40;;;8.57;;
15693;SDS011;7947;48.834;9.132;2022-12-11T13:27:38;18.37;;;10.00;;
15693;SDS011;7947;48.834;9.132;2022-12-11T13:30:44;14.23;;;8.47;;
15693;SDS011;7947;48.834;9.132;2022-12-11T13:34:12;24.07;;;9.77;;
15693;SDS011;7947;48.834;9.132;2022-12-11T13:37:20;14.63;;;8.17;;
15693;SDS011;7947;48.834;9.132;2022-12-11T13:40:32;17.67;;;9.23;;
15693;SDS011;7947;48.834;9.132;2022-12-11T13:43:43;17.10;;;9.00;;
15693;SDS011;7947;48.834;9.132;2022-12-11T13:46:50;18.33;;;9.83;;
15693;SDS011;7947;48.834;9.132;2022-12-11T13:50:01;17.00;;;10.23;;
15693;SDS011;7947;48.834;9.132;2022-12-11T13:53:18;15.60;;;9.70;;
15693;SDS011;7947;48.834;9.132;2022-12-11T13:56:23;15.03;;;9.03;;
15693;SDS011;7947;48.834;9.132;2022-12-11T13:59:31;20.93;;;10.20;;
15693;SDS011;7947;48.834;9.132;2022-12-11T14:02:38;15.10;;;8.83;;
15693;SDS011;7947;48.834;9.132;2022-12-11T14:05:44;19.47;;;10.30;;
15693;SDS011;7947;48.834;9.132;2022-12-11T14:08:50;19.07;;;10.47;;
15693;SDS011;7947;48.834;9.132;2022-12-11T14:12:00;14.77;;;8.53;;
15693;SDS011;7947;48.834;9.132;2022-12-11T14:15:10;21.67;;;11.07;;
15693;SDS011;7947;48.834;9.132;2022-12-11T14:18:20;15.50;;;9.50;;
15693;SDS011;7947;48.834;9.132;2022-12-11T14:21:27;14.50;;;8.10;;
15693;SDS011;7947;48.834;9.132;2022-12-11T14:24:32;19.07;;;10.07;;
15693;SDS011;7947;48.834;9.132;2022-12-11T14:27:45;17.93;;;9.57;;
15693;SDS011;7947;48.834;9.132;2022-12-11T14:30:53;18.13;;;9.63;;
15693;SDS011;7947;48.834;9.132;2022-12-11T14:34:01;16.47;;;9.00;;
15693;SDS011;7947;48.834;9.132;2022-12-11T14:37:13;16.80;;;9.57;;
15693;SDS011;7947;48.834;9.132;2022-12-11T14:40:22;15.23;;;8.13;;
15693;SDS011;7947;48.834;9.132;2022-12-11T14:43:31;15.87;;;8.90;;
15693;SDS011;7947;48.834;9.132;2022-12-11T14:46:45;16.27;;;8.97;;
15693;SDS011;7947;48.834;9.132;2022-12-11T14:49:54;16.37;;;8.67;;
15693;SDS011;7947;48.834;9.132;2022-12-11T14:53:06;15.80;;;8.77;;
15693;SDS011;7947;48.834;9.132;2022-12-11T14:56:15;16.20;;;9.07;;
15693;SDS011;7947;48.834;9.132;2022-12-11T14:59:22;15.73;;;9.33;;
15693;SDS011;7947;48.834;9.132;2022-12-11T15:02:34;17.70;;;9.77;;
15693;SDS011;7947;48.834;9.132;2022-12-11T15:05:47;17.50;;;9.73;;
15693;SDS011;7947;48.834;9.132;2022-12-11T15:08:53;17.93;;;8.67;;
15693;SDS011;7947;48.834;9.132;2022-12-11T15:11:58;14.77;;;8.37;;
15693;SDS011;7947;48.834;9.132;2022-12-11T15:15:13;15.67;;;8.17;;
15693;SDS011;7947;48.834;9.132;2022-12-11T15:18:22;17.87;;;9.70;;
15693;SDS011;7947;48.834;9.132;2022-12-11T15:21:30;16.43;;;9.00;;
15693;SDS011;7947;48.834;9.132;2022-12-11T15:24:38;18.80;;;9.30;;
15693;SDS011;7947;48.834;9.132;2022-12-11T15:27:48;15.60;;;9.00;;
15693;SDS011;7947;48.834;9.132;2022-12-11T15:30:55;16.80;;;9.40;;
15693;SDS011;7947;48.834;9.132;2022-12-11T15:37:27;19.27;;;8.77;;
15693;SDS011;7947;48.834;9.132;2022-12-11T15:40:33;17.80;;;9.83;;
15693;SDS011;7947;48.834;9.132;2022-12-11T15:43:38;17.33;;;10.07;;
15693;SDS011;7947;48.834;9.132;2022-12-11T15:46:43;18.67;;;9.70;;
15693;SDS011;7947;48.834;9.132;2022-12-11T15:49:49;20.43;;;9.77;;
15693;SDS011;7947;48.834;9.132;2022-12-11T15:52:57;17.77;;;9.80;;
15693;SDS011;7947;48.834;9.132;2022-12-11T15:56:02;24.03;;;10.70;;
15693;SDS011;7947;48.834;9.132;2022-12-11T15:59:08;20.20;;;11.00;;
15693;SDS011;7947;48.834;9.132;2022-12-11T16:02:14;17.63;;;9.50;;
15693;SDS011;7947;48.834;9.132;2022-12-11T16:05:23;22.53;;;11.47;;
15693;SDS011;7947;48.834;9.132;2022-12-11T16:08:30;23.03;;;9.93;;
15693;SDS011;7947;48.834;9.132;2022-12-11T16:11:38;20.20;;;10.53;;
15693;SDS011;7947;48.834;9.132;2022-12-11T16:14:45;17.93;;;9.90;;
15693;SDS011;7947;48.834;9.132;2022-12-11T16:17:57;23.67;;;11.67;;
15693;SDS011;7947;48.834;9.132;2022-12-11T16:21:07;19.00;;;10.13;;
15693;SDS011;7947;48.834;9.132;2022-12-11T16:24:19;22.47;;;10.67;;
15693;SDS011;7947;48.834;9.132;2022-12-11T16:27:25;25.37;;;11.50;;
15693;SDS011;7947;48.834;9.132;2022-12-11T16:30:32;19.90;;;10.27;;
15693;SDS011;7947;48.834;9.132;2022-12-11T16:33:40;21.67;;;9.30;;
15693;SDS011;7947;48.834;9.132;2022-12-11T16:36:47;18.37;;;9.40;;
15693;SDS011;7947;48.834;9.132;2022-12-11T16:39:53;16.83;;;8.43;;
15693;SDS011;7947;48.834;9.132;2022-12-11T16:42:59;21.03;;;9.60;;
15693;SDS011;7947;48.834;9.132;2022-12-11T16:46:05;19.67;;;9.67;;
15693;SDS011;7947;48.834;9.132;2022-12-11T16:49:11;16.10;;;8.97;;
15693;SDS011;7947;48.834;9.132;2022-12-11T16:52:18;18.67;;;9.27;;
15693;SDS011;7947;48.834;9.132;2022-12-11T16:55:23;19.03;;;8.60;;
15693;SDS011;7947;48.834;9.132;2022-12-11T16:58:27;19.23;;;9.97;;
15693;SDS011;7947;48.834;9.132;2022-12-11T17:01:32;16.27;;;9.03;;
15693;SDS011;7947;48.834;9.132;2022-12-11T17:04:38;19.97;;;9.53;;
15693;SDS011;7947;48.834;9.132;2022-12-11T17:07:44;18.20;;;8.67;;
15693;SDS011;7947;48.834;9.132;2022-12-11T17:10:49;21.47;;;10.23;;
15693;SDS011;7947;48.834;9.132;2022-12-11T17:13:56;19.97;;;10.00;;
15693;SDS011;7947;48.834;9.132;2022-12-11T17:17:01;19.97;;;10.37;;
15693;SDS011;7947;48.834;9.132;2022-12-11T17:20:06;20.77;;;10.27;;
15693;SDS011;7947;48.834;9.132;2022-12-11T17:23:14;16.63;;;9.17;;
15693;SDS011;7947;48.834;9.132;2022-12-11T17:26:19;19.07;;;9.83;;
15693;SDS011;7947;48.834;9.132;2022-12-11T17:29:26;24.07;;;11.30;;
15693;SDS011;7947;48.834;9.132;2022-12-11T17:32:32;22.03;;;12.40;;
15693;SDS011;7947;48.834;9.132;2022-12-11T17:35:37;20.17;;;11.13;;
15693;SDS011;7947;48.834;9.132;2022-12-11T17:38:46;21.83;;;10.90;;
15693;SDS011;7947;48.834;9.132;2022-12-11T17:41:51;21.60;;;11.10;;
15693;SDS011;7947;48.834;9.132;2022-12-11T17:44:56;18.90;;;9.63;;
15693;SDS011;7947;48.834;9.132;2022-12-11T17:48:01;23.13;;;10.47;;
15693;SDS011;7947;48.834;9.132;2022-12-11T17:51:11;18.50;;;10.63;;
15693;SDS011;7947;48.834;9.132;2022-12-11T17:54:23;22.83;;;10.37;;
15693;SDS011;7947;48.834;9.132;2022-12-11T17:57:28;24.17;;;11.27;;
15693;SDS011;7947;48.834;9.132;2022-12-11T18:00:33;23.03;;;10.87;;
15693;SDS011;7947;48.834;9.132;2022-12-11T18:03:38;19.83;;;10.50;;
15693;SDS011;7947;48.834;9.132;2022-12-11T18:06:46;21.53;;;10.53;;
15693;SDS011;7947;48.834;9.132;2022-12-11T18:09:52;18.47;;;10.10;;
15693;SDS011;7947;48.834;9.132;2022-12-11T18:12:58;19.80;;;10.30;;
15693;SDS011;7947;48.834;9.132;2022-12-11T18:16:03;23.67;;;11.73;;
15693;SDS011;7947;48.834;9.132;2022-12-11T18:19:11;26.23;;;11.60;;
15693;SDS011;7947;48.834;9.132;2022-12-11T18:22:17;19.57;;;10.97;;
15693;SDS011;7947;48.834;9.132;2022-12-11T18:25:23;20.40;;;10.53;;
15693;SDS011;7947;48.834;9.132;2022-12-11T18:28:29;19.23;;;10.53;;
15693;SDS011;7947;48.834;9.132;2022-12-11T18:31:34;17.30;;;9.20;;
15693;SDS011;7947;48.834;9.132;2022-12-11T18:34:43;18.10;;;9.40;;
15693;SDS011;7947;48.834;9.132;2022-12-11T18:37:48;18.83;;;10.70;;
15693;SDS011;7947;48.834;9.132;2022-12-11T18:40:54;17.73;;;9.53;;
15693;SDS011;7947;48.834;9.132;2022-12-11T18:43:59;17.40;;;8.87;;
15693;SDS011;7947;48.834;9.132;2022-12-11T18:47:10;19.53;;;10.07;;
15693;SDS011;7947;48.834;9.132;2022-12-11T18:50:16;17.67;;;8.97;;
15693;SDS011;7947;48.834;9.132;2022-12-11T18:53:21;20.60;;;9.37;;